createdAt,value
2018-06-15T00:01:01.200Z,6.10
2018-06-15T00:03:29.279Z,5.90
2018-06-15T00:05:57.690Z,5.87
2018-06-15T00:08:26.101Z,5.57
2018-06-15T00:10:54.418Z,5.63
2018-06-15T00:13:22.666Z,5.87
2018-06-15T00:15:50.914Z,5.83
2018-06-15T00:18:19.666Z,5.37
2018-06-15T00:20:48.174Z,5.70
2018-06-15T00:23:16.361Z,5.83
2018-06-15T00:25:44.594Z,5.87
2018-06-15T00:28:13.368Z,5.97
2018-06-15T00:30:42.115Z,6.43
2018-06-15T00:33:10.306Z,6.07
2018-06-15T00:35:38.554Z,5.67
2018-06-15T00:38:06.766Z,5.50
2018-06-15T00:40:36.105Z,6.13
2018-06-15T00:43:04.947Z,5.23
2018-06-15T00:45:33.199Z,5.50
2018-06-15T00:48:01.527Z,5.23
2018-06-15T00:50:29.841Z,5.60
2018-06-15T00:52:58.869Z,6.07
2018-06-15T00:55:27.236Z,5.47
2018-06-15T00:57:55.580Z,6.60
2018-06-15T01:00:23.961Z,5.90
2018-06-15T01:02:52.199Z,5.90
2018-06-15T01:05:20.763Z,6.23
2018-06-15T01:07:49.208Z,5.73
2018-06-15T01:10:19.380Z,5.47
2018-06-15T01:12:47.675Z,6.00
2018-06-15T01:15:15.928Z,6.03
2018-06-15T01:17:44.192Z,6.17
2018-06-15T01:20:12.568Z,5.97
2018-06-15T01:22:41.838Z,6.63
2018-06-15T01:25:10.063Z,6.33
2018-06-15T01:27:38.306Z,7.47
2018-06-15T01:30:07.099Z,6.57
2018-06-15T01:32:35.517Z,6.67
2018-06-15T01:35:04.330Z,6.33
2018-06-15T01:37:32.673Z,7.17
2018-06-15T01:40:00.922Z,7.43
2018-06-15T01:42:29.198Z,6.80
2018-06-15T01:44:57.766Z,7.33
2018-06-15T01:47:26.404Z,7.63
2018-06-15T01:49:54.593Z,6.73
2018-06-15T01:52:22.874Z,7.53
2018-06-15T01:54:51.254Z,7.10
2018-06-15T01:57:19.514Z,6.90
2018-06-15T01:59:47.846Z,7.63
2018-06-15T02:02:16.098Z,7.07
2018-06-15T02:04:44.353Z,7.10
2018-06-15T02:07:13.430Z,7.73
2018-06-15T02:09:42.614Z,8.00
2018-06-15T02:12:11.601Z,7.90
2018-06-15T02:14:40.835Z,7.43
2018-06-15T02:17:09.261Z,7.27
2018-06-15T02:19:37.518Z,7.37
2018-06-15T02:22:05.887Z,7.30
2018-06-15T02:24:34.296Z,7.30
2018-06-15T02:27:02.534Z,7.00
2018-06-15T02:29:30.799Z,6.73
2018-06-15T02:31:59.019Z,6.83
2018-06-15T02:34:28.181Z,7.13
2018-06-15T02:36:56.654Z,7.13
2018-06-15T02:39:24.968Z,6.60
2018-06-15T02:41:53.214Z,6.70
2018-06-15T02:44:22.278Z,6.90
2018-06-15T02:46:50.762Z,6.93
2018-06-15T02:49:20.227Z,7.37
2018-06-15T02:51:48.918Z,6.77
2018-06-15T02:54:17.184Z,7.50
2018-06-15T02:56:45.430Z,7.03
2018-06-15T02:59:13.895Z,7.50
2018-06-15T03:01:42.321Z,7.47
2018-06-15T03:04:10.588Z,6.87
2018-06-15T03:06:38.874Z,7.10
2018-06-15T03:09:07.715Z,7.43
2018-06-15T03:11:36.023Z,7.10
2018-06-15T03:14:04.524Z,8.77
2018-06-15T03:16:32.791Z,8.20
2018-06-15T03:19:00.989Z,7.50
2018-06-15T03:21:29.372Z,8.33
2018-06-15T03:23:57.699Z,7.53
2018-06-15T03:26:27.184Z,8.13
2018-06-15T03:28:55.409Z,7.03
2018-06-15T03:31:23.683Z,8.13
2018-06-15T03:33:52.314Z,8.10
2018-06-15T03:36:20.861Z,8.30
2018-06-15T03:38:49.177Z,7.87
2018-06-15T03:41:17.183Z,8.30
2018-06-15T03:43:45.530Z,8.10
2018-06-15T03:46:13.999Z,7.27
2018-06-15T03:48:42.828Z,7.53
2018-06-15T03:51:11.085Z,6.50
2018-06-15T03:53:39.963Z,7.37
2018-06-15T03:56:08.209Z,8.00
2018-06-15T03:58:36.517Z,7.77
2018-06-15T04:01:05.099Z,7.73
2018-06-15T04:03:33.600Z,8.13
2018-06-15T04:06:01.870Z,8.97
2018-06-15T04:08:30.226Z,8.87
2018-06-15T04:10:59.443Z,9.07
2018-06-15T04:13:27.890Z,8.73
2018-06-15T04:15:56.510Z,8.07
2018-06-15T04:18:24.731Z,9.17
2018-06-15T04:20:53.010Z,9.03
2018-06-15T04:23:21.515Z,8.13
2018-06-15T04:25:49.866Z,8.10
2018-06-15T04:28:18.794Z,9.10
2018-06-15T04:30:47.344Z,8.43
2018-06-15T04:33:15.707Z,8.83
2018-06-15T04:35:44.513Z,8.60
2018-06-15T04:38:13.808Z,8.53
2018-06-15T04:40:42.341Z,8.07
2018-06-15T04:43:10.860Z,8.57
2018-06-15T04:45:39.814Z,8.00
2018-06-15T04:48:08.062Z,8.67
2018-06-15T04:50:36.316Z,8.83
2018-06-15T04:53:04.892Z,8.33
2018-06-15T04:55:33.340Z,8.60
2018-06-15T04:58:02.355Z,8.17
2018-06-15T05:00:30.645Z,8.30
2018-06-15T05:02:58.982Z,8.80
2018-06-15T05:05:27.265Z,8.30
2018-06-15T05:07:55.523Z,8.33
2018-06-15T05:10:23.762Z,8.77
2018-06-15T05:12:52.053Z,8.40
2018-06-15T05:15:20.531Z,9.03
2018-06-15T05:17:48.965Z,9.03
2018-06-15T05:20:17.182Z,9.57
2018-06-15T05:22:45.519Z,9.77
2018-06-15T05:25:14.763Z,9.27
2018-06-15T05:27:43.212Z,9.60
2018-06-15T05:30:11.724Z,9.73
2018-06-15T05:32:40.039Z,10.17
2018-06-15T05:35:08.306Z,9.33
2018-06-15T05:37:36.812Z,9.17
2018-06-15T05:40:06.539Z,9.93
2018-06-15T05:42:35.910Z,10.07
2018-06-15T05:45:04.742Z,9.87
2018-06-15T05:47:33.275Z,9.80
2018-06-15T05:50:01.672Z,9.90
2018-06-15T05:52:29.916Z,8.93
2018-06-15T05:54:58.865Z,9.57
2018-06-15T05:57:27.371Z,8.90
2018-06-15T05:59:55.984Z,8.97
2018-06-15T06:02:24.250Z,9.33
2018-06-15T06:04:52.495Z,9.10
2018-06-15T06:07:21.061Z,9.23
2018-06-15T06:09:49.423Z,9.53
2018-06-15T06:12:17.695Z,9.57
2018-06-15T06:14:45.974Z,8.93
2018-06-15T06:17:14.202Z,9.57
2018-06-15T06:19:42.562Z,8.80
2018-06-15T06:22:10.853Z,8.80
2018-06-15T06:24:39.233Z,8.57
2018-06-15T06:27:07.534Z,9.33
2018-06-15T06:29:36.921Z,9.93
2018-06-15T06:32:05.381Z,9.30
2018-06-15T06:34:33.823Z,8.50
2018-06-15T06:37:02.196Z,8.17
2018-06-15T06:39:30.507Z,9.10
2018-06-15T06:41:58.920Z,8.33
2018-06-15T06:44:27.219Z,7.87
2018-06-15T06:46:55.494Z,8.10
2018-06-15T06:49:23.750Z,8.27
2018-06-15T06:51:52.027Z,7.30
2018-06-15T06:54:20.450Z,8.00
2018-06-15T06:56:49.447Z,7.77
2018-06-15T06:59:17.686Z,8.30
2018-06-15T07:01:46.028Z,7.97
2018-06-15T07:04:14.288Z,7.63
2018-06-15T07:06:43.183Z,7.97
2018-06-15T07:09:11.762Z,8.00
2018-06-15T07:11:40.034Z,8.23
2018-06-15T07:14:08.279Z,7.90
2018-06-15T07:16:36.571Z,8.33
2018-06-15T07:19:05.690Z,7.97
2018-06-15T07:21:34.221Z,8.47
2018-06-15T07:24:02.510Z,8.80
2018-06-15T07:26:30.887Z,8.13
2018-06-15T07:28:59.297Z,8.63
2018-06-15T07:31:28.370Z,8.83
2018-06-15T07:33:58.155Z,8.83
2018-06-15T07:36:26.398Z,9.60
2018-06-15T07:38:54.654Z,9.40
2018-06-15T07:41:22.750Z,8.47
2018-06-15T07:43:51.040Z,8.93
2018-06-15T07:46:19.873Z,8.47
2018-06-15T07:48:48.511Z,7.93
2018-06-15T07:51:17.067Z,8.23
2018-06-15T07:53:45.407Z,7.77
2018-06-15T07:56:14.351Z,7.33
2018-06-15T07:58:43.183Z,7.53
2018-06-15T08:01:11.445Z,8.10
2018-06-15T08:03:39.711Z,7.90
2018-06-15T08:06:07.945Z,6.10
2018-06-15T08:08:36.218Z,6.90
2018-06-15T08:11:04.490Z,7.23
2018-06-15T08:13:32.785Z,6.77
2018-06-15T08:16:01.079Z,6.80
2018-06-15T08:18:29.383Z,6.93
2018-06-15T08:20:57.810Z,7.17
2018-06-15T08:23:26.117Z,6.97
2018-06-15T08:25:54.391Z,6.40
2018-06-15T08:28:22.665Z,6.77
2018-06-15T08:30:52.966Z,5.90
2018-06-15T08:33:23.705Z,6.03
2018-06-15T08:35:52.946Z,5.00
2018-06-15T08:38:21.883Z,4.30
2018-06-15T08:40:51.170Z,4.00
2018-06-15T08:43:19.815Z,5.17
2018-06-15T08:45:48.042Z,4.17
2018-06-15T08:48:16.289Z,4.50
2018-06-15T08:50:44.591Z,5.47
2018-06-15T08:53:12.967Z,5.27
2018-06-15T08:55:41.923Z,4.50
2018-06-15T08:58:10.194Z,4.93
2018-06-15T09:00:38.457Z,5.47
2018-06-15T09:03:06.751Z,5.10
2018-06-15T09:05:35.110Z,5.27
2018-06-15T09:08:03.113Z,5.40
2018-06-15T09:10:31.492Z,5.83
2018-06-15T09:12:59.747Z,5.90
2018-06-15T09:15:28.213Z,6.20
2018-06-15T09:17:56.650Z,4.90
2018-06-15T09:20:24.899Z,6.13
2018-06-15T09:22:53.230Z,5.57
2018-06-15T09:25:21.678Z,5.00
2018-06-15T09:27:50.990Z,4.80
2018-06-15T09:30:19.868Z,4.70
2018-06-15T09:32:48.243Z,5.40
2018-06-15T09:35:16.537Z,4.97
2018-06-15T09:37:44.794Z,5.07
2018-06-15T09:40:13.395Z,5.83
2018-06-15T09:42:42.507Z,5.33
2018-06-15T09:45:10.771Z,5.20
2018-06-15T09:47:39.176Z,5.37
2018-06-15T09:50:07.448Z,5.97
2018-06-15T09:52:36.794Z,4.50
2018-06-15T09:55:05.183Z,5.07
2018-06-15T09:57:33.538Z,5.50
2018-06-15T10:00:01.844Z,5.67
2018-06-15T10:02:30.223Z,5.77
2018-06-15T10:04:59.206Z,5.60
2018-06-15T10:07:28.630Z,5.13
2018-06-15T10:09:57.111Z,4.30
2018-06-15T10:12:25.443Z,4.37
2018-06-15T10:14:53.757Z,4.07
2018-06-15T10:17:22.114Z,5.17
2018-06-15T10:19:50.908Z,5.00
2018-06-15T10:22:19.385Z,4.77
2018-06-15T10:24:47.675Z,5.67
2018-06-15T10:27:15.928Z,4.83
2018-06-15T10:29:44.180Z,5.17
2018-06-15T10:32:12.575Z,4.77
2018-06-15T10:34:40.812Z,4.40
2018-06-15T10:37:09.046Z,4.60
2018-06-15T10:39:37.344Z,5.00
2018-06-15T10:42:05.637Z,4.57
2018-06-15T10:44:34.034Z,4.70
2018-06-15T10:47:02.513Z,3.97
2018-06-15T10:49:30.787Z,5.60
2018-06-15T10:51:59.100Z,4.87
2018-06-15T10:54:27.437Z,4.83
2018-06-15T10:56:55.662Z,5.07
2018-06-15T10:59:23.888Z,5.37
2018-06-15T11:01:52.138Z,3.97
2018-06-15T11:04:21.196Z,4.60
2018-06-15T11:06:50.155Z,4.17
2018-06-15T11:09:18.474Z,3.93
2018-06-15T11:11:46.471Z,4.03
2018-06-15T11:14:14.694Z,5.40
2018-06-15T11:16:42.998Z,5.07
2018-06-15T11:19:11.278Z,5.17
2018-06-15T11:21:39.842Z,5.70
2018-06-15T11:24:08.149Z,6.13
2018-06-15T11:26:36.923Z,3.87
2018-06-15T11:29:05.195Z,5.03
2018-06-15T11:31:33.476Z,4.93
2018-06-15T11:34:03.127Z,4.20
2018-06-15T11:36:31.367Z,4.63
2018-06-15T11:38:59.566Z,5.30
2018-06-15T11:41:28.390Z,4.70
2018-06-15T11:43:56.744Z,4.60
2018-06-15T11:46:24.954Z,6.60
2018-06-15T11:48:53.463Z,5.13
2018-06-15T11:51:22.122Z,5.50
2018-06-15T11:53:50.950Z,5.13
2018-06-15T11:56:19.742Z,4.83
2018-06-15T11:58:47.953Z,5.17
2018-06-15T12:01:16.178Z,5.43
2018-06-15T12:03:44.498Z,5.13
2018-06-15T12:06:12.791Z,5.23
2018-06-15T12:08:41.132Z,4.80
2018-06-15T12:11:09.379Z,5.20
2018-06-15T12:13:38.059Z,5.40
2018-06-15T12:16:06.315Z,5.70
2018-06-15T12:18:35.024Z,4.70
2018-06-15T12:21:03.376Z,4.23
2018-06-15T12:23:31.593Z,5.37
2018-06-15T12:25:59.846Z,5.90
2018-06-15T12:28:28.423Z,5.17
2018-06-15T12:30:57.642Z,5.20
2018-06-15T12:33:25.881Z,5.03
2018-06-15T12:35:54.659Z,5.30
2018-06-15T12:38:23.082Z,6.10
2018-06-15T12:40:52.119Z,5.20
2018-06-15T12:43:21.209Z,6.00
2018-06-15T12:45:49.638Z,6.33
2018-06-15T12:48:17.891Z,5.70
2018-06-15T12:50:46.167Z,6.53
2018-06-15T12:53:14.406Z,5.83
2018-06-15T12:55:42.946Z,5.23
2018-06-15T12:58:11.586Z,5.00
2018-06-15T13:00:39.992Z,5.17
2018-06-15T13:03:08.238Z,5.20
2018-06-15T13:05:36.554Z,6.20
2018-06-15T13:08:04.857Z,5.00
2018-06-15T13:10:33.285Z,5.70
2018-06-15T13:13:01.577Z,4.97
2018-06-15T13:15:29.896Z,5.10
2018-06-15T13:17:58.868Z,5.20
2018-06-15T13:20:27.167Z,5.10
2018-06-15T13:23:00.482Z,4.33
2018-06-15T13:25:29.336Z,3.93
2018-06-15T13:27:57.643Z,4.53
2018-06-15T13:30:25.932Z,5.03
2018-06-15T13:32:54.593Z,5.50
2018-06-15T13:35:22.913Z,4.50
2018-06-15T13:37:51.861Z,5.37
2018-06-15T13:40:20.718Z,5.27
2018-06-15T13:42:49.706Z,6.70
2018-06-15T13:45:18.017Z,5.53
2018-06-15T13:47:46.271Z,5.07
2018-06-15T13:50:14.520Z,5.33
2018-06-15T13:52:43.075Z,4.50
2018-06-15T13:55:11.421Z,4.83
2018-06-15T13:57:39.698Z,5.50
2018-06-15T14:00:07.926Z,4.30
2018-06-15T14:02:36.319Z,4.70
2018-06-15T14:05:04.920Z,6.20
2018-06-15T14:07:33.269Z,5.60
2018-06-15T14:10:01.563Z,4.87
2018-06-15T14:12:29.870Z,4.77
2018-06-15T14:14:58.847Z,5.50
2018-06-15T14:17:27.784Z,4.60
2018-06-15T14:19:56.078Z,5.20
2018-06-15T14:22:24.362Z,4.33
2018-06-15T14:24:52.718Z,4.17
2018-06-15T14:27:21.045Z,4.40
2018-06-15T14:29:49.567Z,4.10
2018-06-15T14:32:17.840Z,4.37
2018-06-15T14:34:46.059Z,3.97
2018-06-15T14:37:14.338Z,4.43
2018-06-15T14:39:43.619Z,4.30
2018-06-15T14:42:12.424Z,4.37
2018-06-15T14:44:40.692Z,4.77
2018-06-15T14:47:08.955Z,4.80
2018-06-15T14:49:37.341Z,4.60
2018-06-15T14:52:06.594Z,4.20
2018-06-15T14:54:34.930Z,4.47
2018-06-15T14:57:03.455Z,5.23
2018-06-15T14:59:31.775Z,4.50
2018-06-15T15:02:00.025Z,4.53
2018-06-15T15:04:28.598Z,5.07
2018-06-15T15:06:57.692Z,4.90
2018-06-15T15:09:25.939Z,4.87
2018-06-15T15:11:54.188Z,4.87
2018-06-15T15:14:22.423Z,4.20
2018-06-15T15:16:50.723Z,4.70
2018-06-15T15:19:19.160Z,4.80
2018-06-15T15:21:47.325Z,4.50
2018-06-15T15:24:15.569Z,5.17
2018-06-15T15:26:44.822Z,4.77
2018-06-15T15:29:13.297Z,5.30
2018-06-15T15:31:41.789Z,4.93
2018-06-15T15:34:10.031Z,5.10
2018-06-15T15:36:38.312Z,4.60
2018-06-15T15:39:08.379Z,5.00
2018-06-15T15:41:36.619Z,5.53
2018-06-15T15:44:04.888Z,4.87
2018-06-15T15:46:33.106Z,7.57
2018-06-15T15:49:01.422Z,9.90
2018-06-15T15:51:29.693Z,5.07
2018-06-15T15:53:58.630Z,4.50
2018-06-15T15:56:26.842Z,4.60
2018-06-15T15:58:55.074Z,4.83
2018-06-15T16:01:23.318Z,5.63
2018-06-15T16:03:51.715Z,17.73
2018-06-15T16:06:20.028Z,10.97
2018-06-15T16:08:48.310Z,12.53
2018-06-15T16:11:16.525Z,5.30
2018-06-15T16:13:44.824Z,4.70
2018-06-15T16:16:13.330Z,5.20
2018-06-15T16:18:41.718Z,4.60
2018-06-15T16:21:09.934Z,4.57
2018-06-15T16:23:38.210Z,4.60
2018-06-15T16:26:06.562Z,4.53
2018-06-15T16:28:35.327Z,3.93
2018-06-15T16:31:03.571Z,5.57
2018-06-15T16:33:31.822Z,3.90
2018-06-15T16:36:00.074Z,4.57
2018-06-15T16:38:28.448Z,4.30
2018-06-15T16:40:56.723Z,4.63
2018-06-15T16:43:24.973Z,4.20
2018-06-15T16:45:53.230Z,4.00
2018-06-15T16:48:21.663Z,3.70
2018-06-15T16:50:49.714Z,4.10
2018-06-15T16:53:17.931Z,3.90
2018-06-15T16:55:46.158Z,4.10
2018-06-15T16:58:14.193Z,4.50
2018-06-15T17:00:43.199Z,5.43
2018-06-15T17:03:12.329Z,4.63
2018-06-15T17:05:40.542Z,4.40
2018-06-15T17:08:08.780Z,4.00
2018-06-15T17:10:37.159Z,4.53
2018-06-15T17:13:05.522Z,4.20
2018-06-15T17:15:34.111Z,4.83
2018-06-15T17:18:02.345Z,3.87
2018-06-15T17:20:30.647Z,6.20
2018-06-15T17:22:59.551Z,3.83
2018-06-15T17:25:27.870Z,4.03
2018-06-15T17:27:56.306Z,3.50
2018-06-15T17:30:33.473Z,4.10
2018-06-15T17:33:01.802Z,4.13
2018-06-15T17:35:29.826Z,3.70
2018-06-15T17:37:58.259Z,4.10
2018-06-15T17:40:26.486Z,4.20
2018-06-15T17:42:54.777Z,4.43
2018-06-15T17:45:23.103Z,7.50
2018-06-15T17:47:51.331Z,4.67
2018-06-15T17:50:19.662Z,4.40
2018-06-15T17:52:47.911Z,4.00
2018-06-15T17:55:16.314Z,4.47
2018-06-15T17:57:44.600Z,3.97
2018-06-15T18:00:12.896Z,4.20
2018-06-15T18:02:42.364Z,4.80
2018-06-15T18:05:10.602Z,4.63
2018-06-15T18:07:39.742Z,4.10
2018-06-15T18:10:08.225Z,4.60
2018-06-15T18:12:38.414Z,4.50
2018-06-15T18:15:06.657Z,4.33
2018-06-15T18:17:35.136Z,4.13
2018-06-15T18:20:03.430Z,4.30
2018-06-15T18:22:31.674Z,4.13
2018-06-15T18:24:59.955Z,4.40
2018-06-15T18:27:28.486Z,4.43
2018-06-15T18:29:56.766Z,4.70
2018-06-15T18:32:24.982Z,4.27
2018-06-15T18:34:53.316Z,4.23
2018-06-15T18:37:21.675Z,4.70
2018-06-15T18:39:49.961Z,4.80
2018-06-15T18:42:18.306Z,4.50
2018-06-15T18:44:46.612Z,5.07
2018-06-15T18:47:15.017Z,5.27
2018-06-15T18:49:45.519Z,4.57
2018-06-15T18:52:13.934Z,5.00
2018-06-15T18:54:42.700Z,5.27
2018-06-15T18:57:10.939Z,4.70
2018-06-15T18:59:39.380Z,4.90
2018-06-15T19:02:08.120Z,5.63
2018-06-15T19:04:36.748Z,5.13
2018-06-15T19:07:06.020Z,4.80
2018-06-15T19:09:35.015Z,4.87
2018-06-15T19:12:03.709Z,4.80
2018-06-15T19:14:32.390Z,4.93
2018-06-15T19:17:00.726Z,4.97
2018-06-15T19:19:29.335Z,6.20
2018-06-15T19:21:57.973Z,5.50
2018-06-15T19:24:27.052Z,5.10
2018-06-15T19:26:55.540Z,5.20
2018-06-15T19:29:23.884Z,5.53
2018-06-15T19:31:52.362Z,6.10
2018-06-15T19:34:20.895Z,7.17
2018-06-15T19:36:50.397Z,6.10
2018-06-15T19:39:18.670Z,5.97
2018-06-15T19:41:46.998Z,6.27
2018-06-15T19:44:15.286Z,7.00
2018-06-15T19:46:43.856Z,6.40
2018-06-15T19:49:12.851Z,7.63
2018-06-15T19:51:41.115Z,6.87
2018-06-15T19:54:09.430Z,7.40
2018-06-15T19:56:37.725Z,7.37
2018-06-15T19:59:06.138Z,7.00
2018-06-15T20:01:35.330Z,7.17
2018-06-15T20:04:03.426Z,8.20
2018-06-15T20:06:31.685Z,7.53
2018-06-15T20:08:59.922Z,7.27
2018-06-15T20:11:28.835Z,6.73
2018-06-15T20:13:57.121Z,7.80
2018-06-15T20:16:25.114Z,7.57
2018-06-15T20:18:53.490Z,7.87
2018-06-15T20:21:21.959Z,7.73
2018-06-15T20:23:50.416Z,8.60
2018-06-15T20:26:18.678Z,7.63
2018-06-15T20:28:47.190Z,7.90
2018-06-15T20:31:15.490Z,10.93
2018-06-15T20:33:44.769Z,8.03
2018-06-15T20:36:13.260Z,8.73
2018-06-15T20:38:41.277Z,8.87
2018-06-15T20:41:09.518Z,7.73
2018-06-15T20:43:37.885Z,8.60
2018-06-15T20:46:06.230Z,8.67
2018-06-15T20:48:34.655Z,8.40
2018-06-15T20:51:03.036Z,8.07
2018-06-15T20:53:31.267Z,8.57
2018-06-15T20:55:59.539Z,8.90
2018-06-15T20:58:27.936Z,8.40
2018-06-15T21:00:56.155Z,8.30
2018-06-15T21:03:24.450Z,8.73
2018-06-15T21:05:52.702Z,8.00
2018-06-15T21:08:21.222Z,8.47
2018-06-15T21:10:49.539Z,8.57
2018-06-15T21:13:17.798Z,7.87
2018-06-15T21:15:46.054Z,8.50
2018-06-15T21:18:14.469Z,8.67
2018-06-15T21:20:42.823Z,8.57
2018-06-15T21:23:11.117Z,9.20
2018-06-15T21:25:39.174Z,8.87
2018-06-15T21:28:07.514Z,8.77
2018-06-15T21:30:35.915Z,9.87
2018-06-15T21:33:04.302Z,8.30
2018-06-15T21:35:32.566Z,8.77
2018-06-15T21:38:00.921Z,8.03
2018-06-15T21:40:29.743Z,8.20
2018-06-15T21:42:58.445Z,8.80
2018-06-15T21:45:26.678Z,8.37
2018-06-15T21:47:55.027Z,8.60
2018-06-15T21:50:23.342Z,9.10
2018-06-15T21:52:51.709Z,8.13
2018-06-15T21:55:20.014Z,9.37
2018-06-15T21:57:48.273Z,8.50
2018-06-15T22:00:16.556Z,10.00
2018-06-15T22:02:44.767Z,9.00
2018-06-15T22:05:13.368Z,9.70
2018-06-15T22:07:41.606Z,9.60
2018-06-15T22:10:09.917Z,9.37
2018-06-15T22:12:38.218Z,9.50
2018-06-15T22:15:06.598Z,9.03
2018-06-15T22:17:34.901Z,9.43
2018-06-15T22:20:03.166Z,9.20
2018-06-15T22:22:31.443Z,9.43
2018-06-15T22:24:59.695Z,9.20
2018-06-15T22:27:28.026Z,8.63
2018-06-15T22:29:56.268Z,9.17
2018-06-15T22:32:24.544Z,9.27
2018-06-15T22:34:53.236Z,9.80
2018-06-15T22:37:21.899Z,8.83
2018-06-15T22:39:50.140Z,9.27
2018-06-15T22:42:18.484Z,9.57
2018-06-15T22:44:46.812Z,9.40
2018-06-15T22:47:15.211Z,9.03
2018-06-15T22:49:43.487Z,9.43
2018-06-15T22:52:13.554Z,8.80
2018-06-15T22:54:42.687Z,8.93
2018-06-15T22:57:10.957Z,8.53
2018-06-15T22:59:39.183Z,9.50
2018-06-15T23:02:07.398Z,8.43
2018-06-15T23:04:36.467Z,8.57
2018-06-15T23:07:05.099Z,7.67
2018-06-15T23:09:33.331Z,8.37
2018-06-15T23:12:01.600Z,8.10
2018-06-15T23:14:30.144Z,8.50
2018-06-15T23:16:58.449Z,8.97
2018-06-15T23:19:26.716Z,10.23
2018-06-15T23:21:54.974Z,8.90
2018-06-15T23:24:23.229Z,8.83
2018-06-15T23:26:51.671Z,9.50
2018-06-15T23:29:20.150Z,10.07
2018-06-15T23:31:48.463Z,9.23
2018-06-15T23:34:16.762Z,10.10
2018-06-15T23:36:45.077Z,9.33
2018-06-15T23:39:13.318Z,8.60
2018-06-15T23:41:42.018Z,8.70
2018-06-15T23:44:10.260Z,8.80
2018-06-15T23:46:38.533Z,9.10
2018-06-15T23:49:06.949Z,8.60
2018-06-15T23:51:35.345Z,9.30
2018-06-15T23:54:03.594Z,9.30
2018-06-15T23:56:31.874Z,8.93
2018-06-15T23:59:00.128Z,8.50
